sensor_id;sensor_type;location;lat;lon;timestamp;temperature;humidity
27276;DHT22;14772;47.398;8.080;2022-09-09T00:03:17;18.00;99.90
27276;DHT22;14772;47.398;8.080;2022-09-09T00:08:18;18.00;99.90
27276;DHT22;14772;47.398;8.080;2022-09-09T00:13:19;17.80;99.90
27276;DHT22;14772;47.398;8.080;2022-09-09T00:18:22;17.90;99.90
27276;DHT22;14772;47.398;8.080;2022-09-09T00:23:24;18.00;99.90
27276;DHT22;14772;47.398;8.080;2022-09-09T00:28:24;18.00;99.90
27276;DHT22;14772;47.398;8.080;2022-09-09T00:33:24;18.00;99.90
27276;DHT22;14772;47.398;8.080;2022-09-09T00:38:24;17.90;99.90
27276;DHT22;14772;47.398;8.080;2022-09-09T00:43:26;17.90;99.90
27276;DHT22;14772;47.398;8.080;2022-09-09T00:48:27;17.90;99.90
27276;DHT22;14772;47.398;8.080;2022-09-09T00:53:30;17.80;99.90
27276;DHT22;14772;47.398;8.080;2022-09-09T00:58:28;17.90;99.90
27276;DHT22;14772;47.398;8.080;2022-09-09T01:03:30;17.90;99.90
27276;DHT22;14772;47.398;8.080;2022-09-09T01:08:42;17.90;99.90
27276;DHT22;14772;47.398;8.080;2022-09-09T01:13:39;17.60;99.90
27276;DHT22;14772;47.398;8.080;2022-09-09T01:18:40;17.70;99.90
27276;DHT22;14772;47.398;8.080;2022-09-09T01:23:48;17.80;99.90
27276;DHT22;14772;47.398;8.080;2022-09-09T01:28:47;17.60;99.90
27276;DHT22;14772;47.398;8.080;2022-09-09T01:33:44;17.80;99.90
27276;DHT22;14772;47.398;8.080;2022-09-09T01:38:42;17.90;99.90
27276;DHT22;14772;47.398;8.080;2022-09-09T01:43:39;17.90;99.90
27276;DHT22;14772;47.398;8.080;2022-09-09T01:48:36;17.80;99.90
27276;DHT22;14772;47.398;8.080;2022-09-09T01:53:34;17.80;99.90
27276;DHT22;14772;47.398;8.080;2022-09-09T01:58:36;17.80;99.90
27276;DHT22;14772;47.398;8.080;2022-09-09T02:03:35;17.90;99.90
27276;DHT22;14772;47.398;8.080;2022-09-09T02:08:38;17.90;99.90
27276;DHT22;14772;47.398;8.080;2022-09-09T02:13:37;17.90;99.90
27276;DHT22;14772;47.398;8.080;2022-09-09T02:18:38;17.90;99.90
27276;DHT22;14772;47.398;8.080;2022-09-09T02:23:37;17.90;99.90
27276;DHT22;14772;47.398;8.080;2022-09-09T02:28:41;17.90;99.90
27276;DHT22;14772;47.398;8.080;2022-09-09T02:33:41;17.90;99.90
27276;DHT22;14772;47.398;8.080;2022-09-09T02:38:42;18.00;99.90
27276;DHT22;14772;47.398;8.080;2022-09-09T02:43:39;17.90;99.90
27276;DHT22;14772;47.398;8.080;2022-09-09T02:48:40;17.90;99.90
27276;DHT22;14772;47.398;8.080;2022-09-09T02:53:42;17.60;99.90
27276;DHT22;14772;47.398;8.080;2022-09-09T02:58:40;17.80;99.90
27276;DHT22;14772;47.398;8.080;2022-09-09T03:03:38;17.80;99.90
27276;DHT22;14772;47.398;8.080;2022-09-09T03:08:35;17.50;99.90
27276;DHT22;14772;47.398;8.080;2022-09-09T03:13:32;17.60;99.90
27276;DHT22;14772;47.398;8.080;2022-09-09T03:18:30;17.40;99.90
27276;DHT22;14772;47.398;8.080;2022-09-09T03:23:27;17.60;99.90
27276;DHT22;14772;47.398;8.080;2022-09-09T03:28:24;17.30;99.90
27276;DHT22;14772;47.398;8.080;2022-09-09T03:33:21;17.60;99.90
27276;DHT22;14772;47.398;8.080;2022-09-09T03:38:19;17.70;99.90
27276;DHT22;14772;47.398;8.080;2022-09-09T03:43:16;17.80;99.90
27276;DHT22;14772;47.398;8.080;2022-09-09T03:48:13;17.80;99.90
27276;DHT22;14772;47.398;8.080;2022-09-09T03:53:11;17.50;99.90
27276;DHT22;14772;47.398;8.080;2022-09-09T03:58:08;17.70;99.90
27276;DHT22;14772;47.398;8.080;2022-09-09T04:03:05;17.80;99.90
27276;DHT22;14772;47.398;8.080;2022-09-09T04:08:02;17.80;99.90
27276;DHT22;14772;47.398;8.080;2022-09-09T04:13:00;17.90;99.90
27276;DHT22;14772;47.398;8.080;2022-09-09T04:17:57;17.80;99.90
27276;DHT22;14772;47.398;8.080;2022-09-09T04:22:54;17.70;99.90
27276;DHT22;14772;47.398;8.080;2022-09-09T04:27:54;17.60;99.90
27276;DHT22;14772;47.398;8.080;2022-09-09T04:32:51;17.70;99.90
27276;DHT22;14772;47.398;8.080;2022-09-09T04:37:49;17.50;99.90
27276;DHT22;14772;47.398;8.080;2022-09-09T04:42:46;17.40;99.90
27276;DHT22;14772;47.398;8.080;2022-09-09T04:47:43;17.40;99.90
27276;DHT22;14772;47.398;8.080;2022-09-09T04:52:40;17.10;99.90
27276;DHT22;14772;47.398;8.080;2022-09-09T04:57:37;17.00;99.90
27276;DHT22;14772;47.398;8.080;2022-09-09T05:02:37;16.90;99.90
27276;DHT22;14772;47.398;8.080;2022-09-09T05:07:34;17.20;99.90
27276;DHT22;14772;47.398;8.080;2022-09-09T05:12:32;17.40;99.90
27276;DHT22;14772;47.398;8.080;2022-09-09T05:17:29;17.50;99.90
27276;DHT22;14772;47.398;8.080;2022-09-09T05:22:26;17.50;99.90
27276;DHT22;14772;47.398;8.080;2022-09-09T05:27:23;17.60;99.90
27276;DHT22;14772;47.398;8.080;2022-09-09T05:32:20;17.60;99.90
27276;DHT22;14772;47.398;8.080;2022-09-09T05:37:18;17.30;99.90
27276;DHT22;14772;47.398;8.080;2022-09-09T05:42:15;17.00;99.90
27276;DHT22;14772;47.398;8.080;2022-09-09T05:47:12;17.10;99.90
27276;DHT22;14772;47.398;8.080;2022-09-09T05:52:10;17.10;99.90
27276;DHT22;14772;47.398;8.080;2022-09-09T05:57:07;17.10;99.90
27276;DHT22;14772;47.398;8.080;2022-09-09T06:02:05;17.40;99.90
27276;DHT22;14772;47.398;8.080;2022-09-09T06:07:02;17.20;99.90
27276;DHT22;14772;47.398;8.080;2022-09-09T06:11:59;17.30;99.90
27276;DHT22;14772;47.398;8.080;2022-09-09T06:16:56;17.60;99.90
27276;DHT22;14772;47.398;8.080;2022-09-09T06:21:53;17.50;99.90
27276;DHT22;14772;47.398;8.080;2022-09-09T06:26:50;17.70;99.90
27276;DHT22;14772;47.398;8.080;2022-09-09T06:31:48;17.90;99.90
27276;DHT22;14772;47.398;8.080;2022-09-09T06:36:45;17.90;99.90
27276;DHT22;14772;47.398;8.080;2022-09-09T06:41:42;18.10;99.90
27276;DHT22;14772;47.398;8.080;2022-09-09T06:46:40;18.00;99.90
27276;DHT22;14772;47.398;8.080;2022-09-09T06:51:37;18.10;99.90
27276;DHT22;14772;47.398;8.080;2022-09-09T06:56:35;18.20;99.90
27276;DHT22;14772;47.398;8.080;2022-09-09T07:01:35;18.30;99.90
27276;DHT22;14772;47.398;8.080;2022-09-09T07:06:34;18.30;99.90
27276;DHT22;14772;47.398;8.080;2022-09-09T07:11:36;18.40;99.90
27276;DHT22;14772;47.398;8.080;2022-09-09T07:16:32;18.40;99.90
27276;DHT22;14772;47.398;8.080;2022-09-09T07:21:31;18.00;99.90
27276;DHT22;14772;47.398;8.080;2022-09-09T07:26:29;18.00;99.90
27276;DHT22;14772;47.398;8.080;2022-09-09T07:31:29;17.80;99.90
27276;DHT22;14772;47.398;8.080;2022-09-09T07:36:28;18.30;99.90
27276;DHT22;14772;47.398;8.080;2022-09-09T07:41:27;18.30;99.90
27276;DHT22;14772;47.398;8.080;2022-09-09T07:46:26;18.30;99.90
27276;DHT22;14772;47.398;8.080;2022-09-09T07:56:33;18.50;99.90
27276;DHT22;14772;47.398;8.080;2022-09-09T08:01:32;18.80;99.90
27276;DHT22;14772;47.398;8.080;2022-09-09T08:06:30;18.70;99.90
27276;DHT22;14772;47.398;8.080;2022-09-09T08:11:29;19.00;99.90
27276;DHT22;14772;47.398;8.080;2022-09-09T08:16:28;19.20;99.90
27276;DHT22;14772;47.398;8.080;2022-09-09T08:21:27;18.70;99.90
27276;DHT22;14772;47.398;8.080;2022-09-09T08:26:26;19.20;99.90
27276;DHT22;14772;47.398;8.080;2022-09-09T08:31:25;19.40;99.90
27276;DHT22;14772;47.398;8.080;2022-09-09T08:36:26;19.60;99.90
27276;DHT22;14772;47.398;8.080;2022-09-09T08:46:59;20.00;99.90
27276;DHT22;14772;47.398;8.080;2022-09-09T08:51:57;20.20;99.90
27276;DHT22;14772;47.398;8.080;2022-09-09T08:56:55;20.30;99.90
27276;DHT22;14772;47.398;8.080;2022-09-09T09:02:02;20.40;99.90
27276;DHT22;14772;47.398;8.080;2022-09-09T09:07:04;20.40;99.90
27276;DHT22;14772;47.398;8.080;2022-09-09T09:12:10;20.60;99.90
27276;DHT22;14772;47.398;8.080;2022-09-09T09:17:11;20.10;99.90
27276;DHT22;14772;47.398;8.080;2022-09-09T09:22:16;19.90;99.90
27276;DHT22;14772;47.398;8.080;2022-09-09T09:27:15;19.80;99.90
27276;DHT22;14772;47.398;8.080;2022-09-09T09:37:26;19.30;99.90
27276;DHT22;14772;47.398;8.080;2022-09-09T09:42:23;19.40;99.90
27276;DHT22;14772;47.398;8.080;2022-09-09T09:47:22;19.60;99.90
27276;DHT22;14772;47.398;8.080;2022-09-09T09:52:22;19.10;99.90
27276;DHT22;14772;47.398;8.080;2022-09-09T10:02:37;19.30;99.90
27276;DHT22;14772;47.398;8.080;2022-09-09T10:07:35;19.10;99.90
27276;DHT22;14772;47.398;8.080;2022-09-09T10:12:39;19.20;99.90
27276;DHT22;14772;47.398;8.080;2022-09-09T10:17:40;19.20;99.90
27276;DHT22;14772;47.398;8.080;2022-09-09T10:22:40;19.40;99.90
27276;DHT22;14772;47.398;8.080;2022-09-09T10:27:44;19.70;99.90
27276;DHT22;14772;47.398;8.080;2022-09-09T10:32:46;19.80;99.90
27276;DHT22;14772;47.398;8.080;2022-09-09T10:43:15;20.10;99.90
27276;DHT22;14772;47.398;8.080;2022-09-09T10:48:34;20.20;99.90
27276;DHT22;14772;47.398;8.080;2022-09-09T10:53:41;20.20;99.90
27276;DHT22;14772;47.398;8.080;2022-09-09T10:58:42;20.40;99.90
27276;DHT22;14772;47.398;8.080;2022-09-09T11:03:41;20.50;99.90
27276;DHT22;14772;47.398;8.080;2022-09-09T11:08:39;20.50;99.90
27276;DHT22;14772;47.398;8.080;2022-09-09T11:13:40;20.60;99.90
27276;DHT22;14772;47.398;8.080;2022-09-09T11:18:39;20.70;99.90
27276;DHT22;14772;47.398;8.080;2022-09-09T11:23:41;20.80;99.90
27276;DHT22;14772;47.398;8.080;2022-09-09T11:28:46;20.80;99.90
27276;DHT22;14772;47.398;8.080;2022-09-09T11:34:06;20.90;99.90
27276;DHT22;14772;47.398;8.080;2022-09-09T11:39:14;21.20;99.90
27276;DHT22;14772;47.398;8.080;2022-09-09T11:44:13;21.20;99.90
27276;DHT22;14772;47.398;8.080;2022-09-09T11:49:28;21.50;99.90
27276;DHT22;14772;47.398;8.080;2022-09-09T11:54:30;21.40;99.90
27276;DHT22;14772;47.398;8.080;2022-09-09T11:59:30;21.70;99.90
27276;DHT22;14772;47.398;8.080;2022-09-09T12:04:36;21.60;99.90
27276;DHT22;14772;47.398;8.080;2022-09-09T12:09:43;21.60;99.90
27276;DHT22;14772;47.398;8.080;2022-09-09T12:14:55;21.60;99.90
27276;DHT22;14772;47.398;8.080;2022-09-09T12:20:02;21.80;99.90
27276;DHT22;14772;47.398;8.080;2022-09-09T12:25:04;21.70;99.90
27276;DHT22;14772;47.398;8.080;2022-09-09T12:30:04;22.00;99.90
27276;DHT22;14772;47.398;8.080;2022-09-09T12:35:04;22.10;99.90
27276;DHT22;14772;47.398;8.080;2022-09-09T12:40:05;22.20;98.40
27276;DHT22;14772;47.398;8.080;2022-09-09T12:45:17;22.20;97.30
27276;DHT22;14772;47.398;8.080;2022-09-09T12:50:19;22.10;96.60
27276;DHT22;14772;47.398;8.080;2022-09-09T12:55:19;22.00;95.70
27276;DHT22;14772;47.398;8.080;2022-09-09T13:00:20;22.20;95.10
27276;DHT22;14772;47.398;8.080;2022-09-09T13:05:21;22.80;96.00
27276;DHT22;14772;47.398;8.080;2022-09-09T13:10:24;22.70;94.50
27276;DHT22;14772;47.398;8.080;2022-09-09T13:15:24;22.90;94.50
27276;DHT22;14772;47.398;8.080;2022-09-09T13:20:23;23.00;93.60
27276;DHT22;14772;47.398;8.080;2022-09-09T13:25:24;23.50;92.70
27276;DHT22;14772;47.398;8.080;2022-09-09T13:30:25;23.50;93.20
27276;DHT22;14772;47.398;8.080;2022-09-09T13:35:24;23.80;91.60
27276;DHT22;14772;47.398;8.080;2022-09-09T13:40:22;23.90;92.10
27276;DHT22;14772;47.398;8.080;2022-09-09T13:45:22;23.10;92.50
27276;DHT22;14772;47.398;8.080;2022-09-09T13:50:20;22.70;95.20
27276;DHT22;14772;47.398;8.080;2022-09-09T13:55:18;22.70;96.20
27276;DHT22;14772;47.398;8.080;2022-09-09T14:00:16;22.60;96.20
27276;DHT22;14772;47.398;8.080;2022-09-09T14:05:14;23.00;97.00
27276;DHT22;14772;47.398;8.080;2022-09-09T14:10:12;23.10;95.50
27276;DHT22;14772;47.398;8.080;2022-09-09T14:15:11;23.60;96.00
27276;DHT22;14772;47.398;8.080;2022-09-09T14:20:10;23.90;94.90
27276;DHT22;14772;47.398;8.080;2022-09-09T14:25:09;24.00;95.30
27276;DHT22;14772;47.398;8.080;2022-09-09T14:30:08;23.80;93.20
27276;DHT22;14772;47.398;8.080;2022-09-09T14:35:07;23.40;93.00
27276;DHT22;14772;47.398;8.080;2022-09-09T14:40:06;23.70;94.20
27276;DHT22;14772;47.398;8.080;2022-09-09T14:45:06;23.80;93.80
27276;DHT22;14772;47.398;8.080;2022-09-09T14:50:05;23.30;94.10
27276;DHT22;14772;47.398;8.080;2022-09-09T14:55:02;23.60;94.50
27276;DHT22;14772;47.398;8.080;2022-09-09T14:59:59;23.20;94.60
27276;DHT22;14772;47.398;8.080;2022-09-09T15:04:56;23.60;95.00
27276;DHT22;14772;47.398;8.080;2022-09-09T15:09:54;23.70;94.30
27276;DHT22;14772;47.398;8.080;2022-09-09T15:14:51;23.60;94.20
27276;DHT22;14772;47.398;8.080;2022-09-09T15:19:48;24.20;94.10
27276;DHT22;14772;47.398;8.080;2022-09-09T15:24:45;24.50;93.00
27276;DHT22;14772;47.398;8.080;2022-09-09T15:29:42;24.90;92.20
27276;DHT22;14772;47.398;8.080;2022-09-09T15:34:40;24.90;91.30
27276;DHT22;14772;47.398;8.080;2022-09-09T15:39:37;25.30;90.40
27276;DHT22;14772;47.398;8.080;2022-09-09T15:44:39;25.70;84.40
27276;DHT22;14772;47.398;8.080;2022-09-09T15:49:36;25.90;80.20
27276;DHT22;14772;47.398;8.080;2022-09-09T15:59:42;26.30;77.80
27276;DHT22;14772;47.398;8.080;2022-09-09T16:04:39;25.80;76.60
27276;DHT22;14772;47.398;8.080;2022-09-09T16:09:36;24.90;77.40
27276;DHT22;14772;47.398;8.080;2022-09-09T16:14:33;24.70;79.40
27276;DHT22;14772;47.398;8.080;2022-09-09T16:19:31;24.30;79.20
27276;DHT22;14772;47.398;8.080;2022-09-09T16:24:28;23.70;79.10
27276;DHT22;14772;47.398;8.080;2022-09-09T16:29:25;23.40;84.40
27276;DHT22;14772;47.398;8.080;2022-09-09T16:34:22;22.70;92.50
27276;DHT22;14772;47.398;8.080;2022-09-09T16:39:20;21.70;96.20
27276;DHT22;14772;47.398;8.080;2022-09-09T16:44:18;21.00;99.90
27276;DHT22;14772;47.398;8.080;2022-09-09T16:49:15;20.40;99.90
27276;DHT22;14772;47.398;8.080;2022-09-09T16:54:13;20.60;99.90
27276;DHT22;14772;47.398;8.080;2022-09-09T16:59:14;20.60;99.90
27276;DHT22;14772;47.398;8.080;2022-09-09T17:04:13;20.70;99.90
27276;DHT22;14772;47.398;8.080;2022-09-09T17:09:11;20.40;99.90
27276;DHT22;14772;47.398;8.080;2022-09-09T17:14:11;20.20;99.90
27276;DHT22;14772;47.398;8.080;2022-09-09T17:19:10;20.00;99.90
27276;DHT22;14772;47.398;8.080;2022-09-09T17:24:08;19.70;99.90
27276;DHT22;14772;47.398;8.080;2022-09-09T17:29:05;19.80;99.90
27276;DHT22;14772;47.398;8.080;2022-09-09T17:34:02;19.80;99.90
27276;DHT22;14772;47.398;8.080;2022-09-09T17:39:00;19.80;99.90
27276;DHT22;14772;47.398;8.080;2022-09-09T17:43:58;19.80;99.90
27276;DHT22;14772;47.398;8.080;2022-09-09T17:48:58;19.80;99.90
27276;DHT22;14772;47.398;8.080;2022-09-09T17:53:58;19.80;99.90
27276;DHT22;14772;47.398;8.080;2022-09-09T17:58:56;19.70;99.90
27276;DHT22;14772;47.398;8.080;2022-09-09T18:03:54;19.50;99.90
27276;DHT22;14772;47.398;8.080;2022-09-09T18:08:53;19.50;99.90
27276;DHT22;14772;47.398;8.080;2022-09-09T18:13:53;19.50;99.90
27276;DHT22;14772;47.398;8.080;2022-09-09T18:18:50;19.40;99.90
27276;DHT22;14772;47.398;8.080;2022-09-09T18:23:47;19.30;99.90
27276;DHT22;14772;47.398;8.080;2022-09-09T18:28:49;19.30;99.90
27276;DHT22;14772;47.398;8.080;2022-09-09T18:33:47;19.30;99.90
27276;DHT22;14772;47.398;8.080;2022-09-09T18:38:45;19.20;99.90
27276;DHT22;14772;47.398;8.080;2022-09-09T18:43:43;19.30;99.90
27276;DHT22;14772;47.398;8.080;2022-09-09T18:48:41;19.00;99.90
27276;DHT22;14772;47.398;8.080;2022-09-09T18:53:38;19.00;99.90
27276;DHT22;14772;47.398;8.080;2022-09-09T18:58:36;19.10;99.90
27276;DHT22;14772;47.398;8.080;2022-09-09T19:03:34;19.00;99.90
27276;DHT22;14772;47.398;8.080;2022-09-09T19:08:34;18.70;99.90
27276;DHT22;14772;47.398;8.080;2022-09-09T19:13:32;18.70;99.90
27276;DHT22;14772;47.398;8.080;2022-09-09T19:18:29;18.80;99.90
27276;DHT22;14772;47.398;8.080;2022-09-09T19:23:27;18.80;99.90
27276;DHT22;14772;47.398;8.080;2022-09-09T19:28:24;18.70;99.90
27276;DHT22;14772;47.398;8.080;2022-09-09T19:33:21;18.70;99.90
27276;DHT22;14772;47.398;8.080;2022-09-09T19:38:18;18.70;99.90
27276;DHT22;14772;47.398;8.080;2022-09-09T19:43:15;18.70;99.90
27276;DHT22;14772;47.398;8.080;2022-09-09T19:48:28;18.60;99.90
27276;DHT22;14772;47.398;8.080;2022-09-09T19:53:29;18.50;99.90
27276;DHT22;14772;47.398;8.080;2022-09-09T19:58:26;18.40;99.90
27276;DHT22;14772;47.398;8.080;2022-09-09T20:03:23;18.00;99.90
27276;DHT22;14772;47.398;8.080;2022-09-09T20:08:21;18.10;99.90
27276;DHT22;14772;47.398;8.080;2022-09-09T20:13:18;17.80;99.90
27276;DHT22;14772;47.398;8.080;2022-09-09T20:18:15;18.00;99.90
27276;DHT22;14772;47.398;8.080;2022-09-09T20:23:12;18.20;99.90
27276;DHT22;14772;47.398;8.080;2022-09-09T20:28:10;18.30;99.90
27276;DHT22;14772;47.398;8.080;2022-09-09T20:33:07;18.30;99.90
27276;DHT22;14772;47.398;8.080;2022-09-09T20:38:04;18.10;99.90
27276;DHT22;14772;47.398;8.080;2022-09-09T20:43:02;18.10;99.90
27276;DHT22;14772;47.398;8.080;2022-09-09T20:47:59;18.10;99.90
27276;DHT22;14772;47.398;8.080;2022-09-09T20:52:56;17.90;99.90
27276;DHT22;14772;47.398;8.080;2022-09-09T20:57:53;17.90;99.90
27276;DHT22;14772;47.398;8.080;2022-09-09T21:02:50;17.70;99.90
27276;DHT22;14772;47.398;8.080;2022-09-09T21:07:47;17.70;99.90
27276;DHT22;14772;47.398;8.080;2022-09-09T21:12:45;17.70;99.90
27276;DHT22;14772;47.398;8.080;2022-09-09T21:17:42;17.60;99.90
27276;DHT22;14772;47.398;8.080;2022-09-09T21:22:39;17.60;99.90
27276;DHT22;14772;47.398;8.080;2022-09-09T21:27:36;17.60;99.90
27276;DHT22;14772;47.398;8.080;2022-09-09T21:32:33;17.60;99.90
27276;DHT22;14772;47.398;8.080;2022-09-09T21:37:30;17.60;99.90
27276;DHT22;14772;47.398;8.080;2022-09-09T21:42:28;17.70;99.90
27276;DHT22;14772;47.398;8.080;2022-09-09T21:47:25;17.60;99.90
27276;DHT22;14772;47.398;8.080;2022-09-09T21:52:22;17.60;99.90
27276;DHT22;14772;47.398;8.080;2022-09-09T21:57:19;17.60;99.90
27276;DHT22;14772;47.398;8.080;2022-09-09T22:02:17;17.70;99.90
27276;DHT22;14772;47.398;8.080;2022-09-09T22:07:14;17.60;99.90
27276;DHT22;14772;47.398;8.080;2022-09-09T22:12:11;17.60;99.90
27276;DHT22;14772;47.398;8.080;2022-09-09T22:17:08;17.80;99.90
27276;DHT22;14772;47.398;8.080;2022-09-09T22:22:05;17.70;99.90
27276;DHT22;14772;47.398;8.080;2022-09-09T22:27:03;17.70;99.90
27276;DHT22;14772;47.398;8.080;2022-09-09T22:32:00;17.60;99.90
27276;DHT22;14772;47.398;8.080;2022-09-09T22:36:57;17.60;99.90
27276;DHT22;14772;47.398;8.080;2022-09-09T22:41:56;17.70;99.90
27276;DHT22;14772;47.398;8.080;2022-09-09T22:46:54;17.60;99.90
27276;DHT22;14772;47.398;8.080;2022-09-09T22:51:51;17.50;99.90
27276;DHT22;14772;47.398;8.080;2022-09-09T22:56:49;17.60;99.90
27276;DHT22;14772;47.398;8.080;2022-09-09T23:01:47;17.40;99.90
27276;DHT22;14772;47.398;8.080;2022-09-09T23:06:44;17.50;99.90
27276;DHT22;14772;47.398;8.080;2022-09-09T23:11:41;17.20;99.90
27276;DHT22;14772;47.398;8.080;2022-09-09T23:16:42;17.30;99.90
27276;DHT22;14772;47.398;8.080;2022-09-09T23:21:39;17.10;99.90
27276;DHT22;14772;47.398;8.080;2022-09-09T23:26:36;17.40;99.90
27276;DHT22;14772;47.398;8.080;2022-09-09T23:31:34;17.40;99.90
27276;DHT22;14772;47.398;8.080;2022-09-09T23:36:32;17.40;99.90
27276;DHT22;14772;47.398;8.080;2022-09-09T23:41:30;17.40;99.90
27276;DHT22;14772;47.398;8.080;2022-09-09T23:46:29;17.50;99.90
27276;DHT22;14772;47.398;8.080;2022-09-09T23:51:28;17.50;99.90
27276;DHT22;14772;47.398;8.080;2022-09-09T23:56:27;17.50;99.90
